Time;durP1;ratioP1;P1;durP2;ratioP2;P2;SDS_P1;SDS_P2;PMS_P1;PMS_P2;Temp;Humidity;BMP_temperature;BMP_pressure;BME280_temperature;BME280_humidity;BME280_pressure;Samples;Min_cycle;Max_cycle;Signal;HPM_P1;HPM_P2
2023/06/12 00:01:01;;;;;;;0.50;0.50;;;;;;;21.11;99.56;98782.56;5071678;28;20199;-71
2023/06/12 00:03:28;;;;;;;0.50;0.50;;;;;;;21.10;99.03;98786.16;5071269;28;20260;-71
2023/06/12 00:05:59;;;;;;;0.57;0.57;;;;;;;21.09;99.44;98784.47;5068556;28;20211;-71
2023/06/12 00:08:28;;;;;;;0.43;0.43;;;;;;;21.07;99.39;98781.97;5068977;28;20199;-71
2023/06/12 00:10:55;;;;;;;0.57;0.57;;;;;;;21.04;99.42;98778.78;5071017;28;20234;-71
2023/06/12 00:13:23;;;;;;;0.57;0.57;;;;;;;21.02;99.35;98780.69;5070056;28;20211;-71
2023/06/12 00:15:50;;;;;;;0.50;0.50;;;;;;;21.02;99.70;98778.09;5071524;28;20298;-71
2023/06/12 00:18:17;;;;;;;0.40;0.40;;;;;;;20.89;99.96;98757.44;5070206;28;20753;-71
2023/06/12 00:20:44;;;;;;;0.67;0.67;;;;;;;20.93;100.00;98772.69;5066364;28;20192;-71
2023/06/12 00:23:12;;;;;;;0.50;0.50;;;;;;;20.84;100.00;98770.81;5070937;28;20199;-71
2023/06/12 00:25:40;;;;;;;0.40;0.40;;;;;;;20.83;100.00;98778.78;5070913;28;20249;-71
2023/06/12 00:28:06;;;;;;;0.40;0.40;;;;;;;20.76;100.00;98788.03;5067658;28;20334;-71
2023/06/12 00:30:33;;;;;;;0.57;0.57;;;;;;;20.71;100.00;98780.59;5070753;28;20226;-71
2023/06/12 00:33:00;;;;;;;0.70;0.70;;;;;;;20.63;100.00;98790.81;5067664;28;20575;-71
2023/06/12 00:35:27;;;;;;;0.50;0.50;;;;;;;20.61;100.00;98786.69;5070576;28;20670;-71
2023/06/12 00:37:54;;;;;;;0.57;0.57;;;;;;;20.52;100.00;98790.03;5071109;28;20249;-71
2023/06/12 00:40:23;;;;;;;0.50;0.50;;;;;;;20.43;100.00;98784.59;5068514;28;20586;-68
2023/06/12 00:42:51;;;;;;;0.40;0.40;;;;;;;20.43;100.00;98791.59;5069267;28;20207;-68
2023/06/12 00:45:21;;;;;;;0.43;0.43;;;;;;;20.39;100.00;98792.78;5068847;28;20202;-68
2023/06/12 00:47:54;;;;;;;0.67;0.67;;;;;;;20.37;100.00;98792.91;5070612;28;20258;-68
2023/06/12 00:50:25;;;;;;;0.40;0.40;;;;;;;20.34;100.00;98794.94;5070973;28;20212;-68
2023/06/12 00:52:53;;;;;;;0.50;0.50;;;;;;;20.32;100.00;98789.03;5069885;28;20257;-68
2023/06/12 00:55:20;;;;;;;0.50;0.50;;;;;;;20.28;100.00;98792.81;5070567;28;20264;-68
2023/06/12 00:57:48;;;;;;;0.80;0.80;;;;;;;20.16;100.00;98783.34;5069368;28;20218;-67
2023/06/12 01:00:17;;;;;;;0.50;0.50;;;;;;;20.21;100.00;98787.25;5070935;28;20579;-68
2023/06/12 01:02:46;;;;;;;0.40;0.40;;;;;;;20.20;100.00;98789.94;5064072;28;20257;-68
2023/06/12 01:05:14;;;;;;;0.40;0.40;;;;;;;20.22;100.00;98788.91;5070547;28;20206;-68
2023/06/12 01:07:47;;;;;;;0.50;0.50;;;;;;;20.20;100.00;98784.75;5069888;28;20811;-69
2023/06/12 01:10:18;;;;;;;0.50;0.50;;;;;;;20.17;100.00;98790.19;5070860;28;20218;-68
2023/06/12 01:12:45;;;;;;;0.50;0.50;;;;;;;20.16;100.00;98798.97;5069535;28;20668;-68
2023/06/12 01:15:14;;;;;;;0.40;0.40;;;;;;;20.12;100.00;98794.94;5066572;28;20206;-68
2023/06/12 01:17:41;;;;;;;0.60;0.60;;;;;;;20.15;100.00;98798.13;5069811;28;20190;-68
2023/06/12 01:20:11;;;;;;;0.57;0.57;;;;;;;20.16;100.00;98799.78;5070475;28;20295;-68
2023/06/12 01:22:43;;;;;;;0.60;0.60;;;;;;;20.18;100.00;98802.25;5070007;28;20206;-68
2023/06/12 01:26:00;;;;;;;0.50;0.50;;;;;;;20.18;100.00;98803.09;5070810;28;20199;-68
2023/06/12 01:28:51;;;;;;;0.50;0.50;;;;;;;20.16;100.00;98801.56;5007210;28;20245;-68
2023/06/12 01:31:23;;;;;;;0.50;0.50;;;;;;;20.16;100.00;98796.38;5065236;28;20215;-68
2023/06/12 01:34:03;;;;;;;0.60;0.60;;;;;;;20.07;100.00;98789.25;5069688;28;20198;-68
2023/06/12 01:36:34;;;;;;;0.50;0.50;;;;;;;20.12;100.00;98802.75;5069754;28;20198;-68
2023/06/12 01:39:04;;;;;;;0.53;0.53;;;;;;;20.12;100.00;98810.56;5068837;28;20203;-68
2023/06/12 01:41:31;;;;;;;0.47;0.47;;;;;;;19.99;100.00;98786.44;5067921;28;20196;-68
2023/06/12 01:44:08;;;;;;;0.40;0.40;;;;;;;19.95;100.00;98803.22;5069915;28;20205;-68
2023/06/12 01:46:35;;;;;;;0.50;0.50;;;;;;;19.58;100.00;98811.25;5068680;28;20215;-68
2023/06/12 01:49:04;;;;;;;0.80;0.80;;;;;;;19.46;100.00;98788.81;5068906;28;20226;-68
2023/06/12 01:51:31;;;;;;;0.43;0.43;;;;;;;19.52;100.00;98792.69;5070118;28;20231;-68
2023/06/12 01:53:57;;;;;;;0.70;0.70;;;;;;;19.48;100.00;98799.94;5069233;28;20726;-68
2023/06/12 01:56:25;;;;;;;0.50;0.50;;;;;;;19.43;100.00;98799.44;5069795;28;20634;-68
2023/06/12 01:58:52;;;;;;;0.80;0.80;;;;;;;19.46;100.00;98804.41;5069604;28;20206;-68
2023/06/12 02:01:19;;;;;;;0.63;0.63;;;;;;;19.45;100.00;98800.13;5069378;28;20760;-68
2023/06/12 02:03:46;;;;;;;0.60;0.60;;;;;;;19.35;100.00;98778.38;5068518;28;20276;-68
2023/06/12 02:06:15;;;;;;;1.20;1.20;;;;;;;19.47;100.00;98800.88;5069755;28;20644;-68
2023/06/12 02:08:42;;;;;;;0.50;0.50;;;;;;;19.48;100.00;98802.53;5069370;28;20199;-68
2023/06/12 02:11:09;;;;;;;0.40;0.40;;;;;;;19.48;100.00;98807.72;5070012;28;20213;-68
2023/06/12 02:13:36;;;;;;;0.67;0.67;;;;;;;19.52;100.00;98801.34;5069773;28;20214;-68
2023/06/12 02:16:04;;;;;;;0.63;0.63;;;;;;;19.53;100.00;98804.75;5069748;28;20209;-71
2023/06/12 02:18:31;;;;;;;0.60;0.60;;;;;;;19.49;100.00;98792.94;5066339;28;20200;-71
2023/06/12 02:20:58;;;;;;;0.50;0.50;;;;;;;19.55;100.00;98803.69;5069072;28;20199;-71
2023/06/12 02:23:26;;;;;;;0.70;0.70;;;;;;;19.56;100.00;98812.31;5064937;28;20257;-71
2023/06/12 02:25:53;;;;;;;0.57;0.57;;;;;;;19.56;100.00;98820.97;5069060;28;20201;-70
2023/06/12 02:28:19;;;;;;;0.57;0.57;;;;;;;19.57;100.00;98822.63;5069378;28;20223;-71
2023/06/12 02:30:46;;;;;;;0.60;0.60;;;;;;;19.57;100.00;98829.59;5066966;28;20206;-71
2023/06/12 02:33:13;;;;;;;0.40;0.40;;;;;;;19.52;100.00;98829.94;5068320;28;20668;-71
2023/06/12 02:35:40;;;;;;;0.60;0.60;;;;;;;19.52;100.00;98835.13;5070907;28;20203;-71
2023/06/12 02:38:07;;;;;;;0.50;0.50;;;;;;;19.53;100.00;98828.16;5073135;28;20641;-71
2023/06/12 02:40:35;;;;;;;0.50;0.50;;;;;;;19.50;100.00;98824.03;5068544;28;20694;-71
2023/06/12 02:43:02;;;;;;;0.60;0.60;;;;;;;19.52;100.00;98832.53;5072332;28;20193;-71
2023/06/12 02:45:29;;;;;;;0.50;0.50;;;;;;;19.45;100.00;98833.13;5072791;28;20698;-71
2023/06/12 02:47:55;;;;;;;0.60;0.60;;;;;;;19.36;100.00;98824.19;5071898;28;20197;-71
2023/06/12 02:50:22;;;;;;;0.60;0.60;;;;;;;19.34;100.00;98818.28;5071928;28;20211;-71
2023/06/12 02:52:50;;;;;;;0.60;0.60;;;;;;;19.46;100.00;98835.59;5068725;28;20278;-71
2023/06/12 02:55:16;;;;;;;0.53;0.53;;;;;;;19.46;100.00;98834.75;5072080;28;20210;-71
2023/06/12 02:57:44;;;;;;;0.57;0.57;;;;;;;19.48;100.00;98838.09;5072590;28;20675;-71
2023/06/12 03:00:14;;;;;;;0.60;0.60;;;;;;;19.49;100.00;98844.94;5071431;28;20205;-71
2023/06/12 03:02:42;;;;;;;0.60;0.60;;;;;;;19.48;100.00;98838.94;5072675;28;20203;-71
2023/06/12 03:05:14;;;;;;;0.60;0.60;;;;;;;19.46;100.00;98839.97;5070965;28;20310;-71
2023/06/12 03:07:41;;;;;;;0.70;0.70;;;;;;;19.48;100.00;98838.94;5071330;28;20587;-71
2023/06/12 03:10:08;;;;;;;0.50;0.50;;;;;;;19.47;100.00;98839.84;5070980;28;20209;-71
2023/06/12 03:12:35;;;;;;;0.60;0.60;;;;;;;19.46;100.00;98835.59;5071944;28;20573;-71
2023/06/12 03:15:04;;;;;;;0.97;0.97;;;;;;;19.46;100.00;98846.00;5070286;28;20204;-71
2023/06/12 03:17:31;;;;;;;0.50;0.50;;;;;;;19.42;100.00;98833.38;5072068;28;20198;-71
2023/06/12 03:19:58;;;;;;;0.60;0.60;;;;;;;19.48;100.00;98838.94;5071900;28;20728;-71
2023/06/12 03:22:25;;;;;;;0.70;0.70;;;;;;;19.52;100.00;98827.34;5064607;28;20203;-71
2023/06/12 03:24:53;;;;;;;0.47;0.47;;;;;;;19.56;100.00;98830.53;5070988;28;20214;-71
2023/06/12 03:27:21;;;;;;;0.70;0.70;;;;;;;19.61;100.00;98834.44;5070754;28;20320;-71
2023/06/12 03:29:49;;;;;;;0.70;0.70;;;;;;;19.52;100.00;98848.13;5070973;28;20294;-71
2023/06/12 03:32:17;;;;;;;0.70;0.70;;;;;;;19.38;100.00;98846.56;5072074;28;20246;-71
2023/06/12 03:34:46;;;;;;;0.70;0.70;;;;;;;19.32;100.00;98843.59;5070655;28;20690;-71
2023/06/12 03:37:13;;;;;;;0.90;0.90;;;;;;;19.30;100.00;98850.66;5069600;28;20209;-71
2023/06/12 03:39:39;;;;;;;0.70;0.70;;;;;;;19.18;100.00;98846.38;5071832;28;20198;-71
2023/06/12 03:42:07;;;;;;;0.67;0.67;;;;;;;19.12;100.00;98829.47;5071494;28;20201;-70
2023/06/12 03:44:34;;;;;;;0.60;0.60;;;;;;;19.27;100.00;98845.69;5071459;28;20283;-71
2023/06/12 03:47:00;;;;;;;0.50;0.50;;;;;;;19.36;100.00;98842.38;5070644;28;20267;-71
2023/06/12 03:49:28;;;;;;;0.70;0.70;;;;;;;19.44;100.00;98837.50;5067382;28;20208;-71
2023/06/12 03:51:55;;;;;;;0.40;0.40;;;;;;;19.45;100.00;98839.13;5063878;28;20322;-71
2023/06/12 03:54:22;;;;;;;0.40;0.40;;;;;;;19.54;100.00;98833.25;5065354;28;20207;-71
2023/06/12 03:56:49;;;;;;;1.30;1.30;;;;;;;19.68;100.00;98840.00;5070512;28;20210;-71
2023/06/12 03:59:18;;;;;;;0.40;0.40;;;;;;;19.76;100.00;98848.88;5070052;28;20203;-71
2023/06/12 04:01:45;;;;;;;0.50;0.50;;;;;;;19.82;100.00;98845.81;5070895;28;20735;-71
2023/06/12 04:04:12;;;;;;;0.70;0.70;;;;;;;19.89;100.00;98843.56;5071510;28;20213;-71
2023/06/12 04:06:40;;;;;;;0.67;0.67;;;;;;;19.88;100.00;98827.13;5070291;28;20656;-71
2023/06/12 04:09:08;;;;;;;0.53;0.53;;;;;;;19.99;100.00;98836.72;5068863;28;20246;-71
2023/06/12 04:11:38;;;;;;;0.40;0.40;;;;;;;20.07;100.00;98844.72;5071086;28;20204;-71
2023/06/12 04:14:06;;;;;;;1.00;1.00;;;;;;;20.09;100.00;98839.44;5069767;28;20329;-71
2023/06/12 04:16:33;;;;;;;0.60;0.60;;;;;;;20.19;100.00;98845.56;5068997;28;20203;-71
2023/06/12 04:19:03;;;;;;;0.40;0.40;;;;;;;20.28;100.00;98843.09;5069448;28;20340;-71
2023/06/12 04:21:30;;;;;;;0.93;0.70;;;;;;;20.31;100.00;98844.63;5069595;28;20200;-70
2023/06/12 04:23:59;;;;;;;0.50;0.50;;;;;;;20.34;100.00;98845.22;5070311;28;20211;-72
2023/06/12 04:26:26;;;;;;;0.50;0.50;;;;;;;20.36;100.00;98847.69;5070456;28;20202;-71
2023/06/12 04:28:56;;;;;;;0.67;0.67;;;;;;;20.33;100.00;98843.56;5069546;28;20230;-71
2023/06/12 04:31:26;;;;;;;0.53;0.53;;;;;;;20.55;100.00;98853.09;5069525;28;20290;-71
2023/06/12 04:33:54;;;;;;;0.60;0.60;;;;;;;20.60;100.00;98850.97;5069398;28;20207;-71
2023/06/12 04:36:21;;;;;;;0.50;0.50;;;;;;;20.67;100.00;98849.53;5070459;28;20266;-71
2023/06/12 04:38:50;;;;;;;0.60;0.60;;;;;;;20.74;100.00;98847.28;5070626;28;20238;-71
2023/06/12 04:41:19;;;;;;;0.57;0.57;;;;;;;20.92;100.00;98849.22;5071290;28;20269;-71
2023/06/12 04:43:48;;;;;;;0.47;0.47;;;;;;;21.18;100.00;98849.72;5070652;28;20695;-71
2023/06/12 04:46:17;;;;;;;0.40;0.40;;;;;;;21.52;99.55;98858.16;5069290;28;20196;-71
2023/06/12 04:48:45;;;;;;;0.33;0.33;;;;;;;21.72;98.30;98857.31;5066070;28;20678;-71
2023/06/12 04:51:13;;;;;;;0.40;0.40;;;;;;;22.00;98.54;98853.25;5067914;28;20215;-71
2023/06/12 04:53:40;;;;;;;0.40;0.40;;;;;;;22.32;96.51;98845.25;5069561;28;20243;-70
2023/06/12 04:56:08;;;;;;;0.40;0.40;;;;;;;22.61;92.75;98861.81;5067358;28;20652;-67
2023/06/12 04:58:40;;;;;;;0.40;0.40;;;;;;;22.87;93.06;98856.94;5066236;28;20718;-67
2023/06/12 05:01:07;;;;;;;0.63;0.63;;;;;;;23.17;92.79;98854.16;5069534;28;20265;-67
2023/06/12 05:03:33;;;;;;;0.30;0.30;;;;;;;23.43;91.35;98859.66;5069039;28;20196;-67
2023/06/12 05:06:00;;;;;;;0.40;0.40;;;;;;;23.59;89.38;98854.66;5068149;28;20261;-68
2023/06/12 05:08:27;;;;;;;0.60;0.60;;;;;;;23.69;87.34;98865.13;5067825;28;20197;-66
2023/06/12 05:10:54;;;;;;;0.30;0.30;;;;;;;23.75;87.75;98860.13;5067855;28;20204;-65
2023/06/12 05:13:20;;;;;;;0.37;0.37;;;;;;;23.70;85.93;98867.59;5065581;28;20257;-65
2023/06/12 05:15:49;;;;;;;0.30;0.30;;;;;;;23.75;84.98;98869.81;5064602;28;20615;-65
2023/06/12 05:18:15;;;;;;;0.40;0.40;;;;;;;23.81;86.33;98872.66;5064510;28;20212;-65
2023/06/12 05:20:42;;;;;;;0.40;0.40;;;;;;;23.84;87.16;98864.56;5067782;28;20208;-65
2023/06/12 05:23:09;;;;;;;0.70;0.70;;;;;;;23.82;86.00;98871.69;5068268;28;20677;-66
2023/06/12 05:25:36;;;;;;;0.60;0.60;;;;;;;23.79;84.93;98876.38;5064597;28;20253;-66
2023/06/12 05:28:04;;;;;;;0.50;0.50;;;;;;;23.84;85.03;98876.81;5067599;28;20232;-65
2023/06/12 05:30:31;;;;;;;0.40;0.40;;;;;;;24.10;85.72;98877.81;5065676;28;20242;-65
2023/06/12 05:32:59;;;;;;;0.57;0.57;;;;;;;24.43;87.48;98871.19;5067205;28;20666;-65
2023/06/12 05:35:26;;;;;;;0.53;0.53;;;;;;;24.75;nan;98871.53;5065503;28;20216;-65
2023/06/12 05:37:54;;;;;;;0.40;0.40;;;;;;;25.17;86.54;98873.63;5068438;28;20196;-67
2023/06/12 05:40:21;;;;;;;0.33;0.33;;;;;;;25.52;83.78;98876.22;5068787;28;20204;-73
2023/06/12 05:42:48;;;;;;;0.60;0.60;;;;;;;25.76;81.74;98879.00;5068393;28;20214;-69
2023/06/12 05:45:15;;;;;;;0.40;0.40;;;;;;;26.04;80.30;98883.09;5069177;28;20203;-69
2023/06/12 05:47:42;;;;;;;0.40;0.40;;;;;;;26.28;77.88;98886.84;5071035;28;20203;-69
2023/06/12 05:50:11;;;;;;;0.47;0.47;;;;;;;26.44;77.23;98890.38;5070889;28;20203;-69
2023/06/12 05:52:38;;;;;;;0.47;0.47;;;;;;;26.61;75.15;98886.00;5069174;28;20223;-69
2023/06/12 05:55:05;;;;;;;0.43;0.43;;;;;;;26.66;73.40;98883.69;5068172;28;20277;-68
2023/06/12 05:57:34;;;;;;;0.47;0.47;;;;;;;26.88;72.20;98884.94;5066320;28;20212;-66
2023/06/12 06:00:00;;;;;;;0.97;0.63;;;;;;;27.12;74.31;98882.34;5069194;28;20210;-66
2023/06/12 06:02:27;;;;;;;0.30;0.30;;;;;;;27.33;70.55;98890.59;5066322;28;20204;-66
2023/06/12 06:04:54;;;;;;;0.60;0.60;;;;;;;27.36;70.77;98884.16;5066796;28;20580;-70
2023/06/12 06:07:22;;;;;;;0.40;0.40;;;;;;;27.53;72.25;98885.81;5068805;28;20274;-68
2023/06/12 06:09:49;;;;;;;0.60;0.60;;;;;;;27.58;72.19;98886.16;5068594;28;20196;-68
2023/06/12 06:12:16;;;;;;;0.40;0.40;;;;;;;27.73;70.76;98889.75;5069418;28;20208;-68
2023/06/12 06:14:43;;;;;;;0.80;0.80;;;;;;;27.87;69.40;98890.88;5071594;28;21107;-69
2023/06/12 06:17:10;;;;;;;0.80;0.40;;;;;;;27.94;71.03;98886.59;5070201;28;20383;-69
2023/06/12 06:19:36;;;;;;;0.30;0.30;;;;;;;28.23;70.55;98886.84;5071994;28;20208;-69
2023/06/12 06:22:05;;;;;;;0.40;0.40;;;;;;;28.49;67.48;98894.47;5070409;28;20211;-69
2023/06/12 06:24:33;;;;;;;0.40;0.40;;;;;;;28.67;67.65;98900.34;5072317;28;20577;-69
2023/06/12 06:27:02;;;;;;;0.60;0.60;;;;;;;28.85;65.19;98890.38;5071095;28;20200;-69
2023/06/12 06:29:28;;;;;;;0.30;0.30;;;;;;;28.94;64.66;98886.69;5070909;28;20231;-68
2023/06/12 06:31:55;;;;;;;0.70;0.70;;;;;;;29.05;65.99;98894.16;5071237;28;20261;-69
2023/06/12 06:34:22;;;;;;;0.60;0.60;;;;;;;29.25;65.40;98899.00;5069574;28;20216;-69
2023/06/12 06:36:49;;;;;;;0.40;0.40;;;;;;;29.35;64.92;98899.59;5071536;28;20203;-69
2023/06/12 06:39:16;;;;;;;0.40;0.40;;;;;;;29.60;64.01;98896.56;5072499;28;20224;-69
2023/06/12 06:41:44;;;;;;;0.55;0.55;;;;;;;29.75;63.14;98891.31;5070056;28;20637;-69
2023/06/12 06:44:12;;;;;;;0.50;0.50;;;;;;;29.97;63.09;98895.72;5071105;28;20199;-69
2023/06/12 06:46:39;;;;;;;0.45;0.45;;;;;;;29.88;61.00;98896.81;5069193;28;20266;-69
2023/06/12 06:49:05;;;;;;;0.68;0.52;;;;;;;29.87;60.08;98895.19;5071892;28;20258;-69
2023/06/12 06:51:33;;;;;;;0.52;0.52;;;;;;;29.76;62.66;98887.66;5072513;28;20266;-69
2023/06/12 06:53:59;;;;;;;0.52;0.52;;;;;;;29.84;64.39;98884.97;5071304;28;20306;-69
2023/06/12 06:56:26;;;;;;;0.75;0.60;;;;;;;30.01;60.05;98889.09;5071364;28;20211;-69
2023/06/12 06:58:54;;;;;;;0.40;0.40;;;;;;;30.15;60.03;98892.72;5070926;28;20576;-69
2023/06/12 07:01:22;;;;;;;0.50;0.50;;;;;;;30.32;58.85;98888.06;5071925;28;20208;-69
2023/06/12 07:03:48;;;;;;;0.50;0.50;;;;;;;30.12;58.98;98880.69;5071319;28;20250;-69
2023/06/12 07:06:15;;;;;;;0.50;0.50;;;;;;;30.24;60.80;98880.22;5069830;28;20608;-69
2023/06/12 07:08:42;;;;;;;0.60;0.60;;;;;;;30.37;58.14;98881.22;5067874;28;20614;-69
2023/06/12 07:11:09;;;;;;;0.50;0.50;;;;;;;30.63;61.75;98883.41;5071964;28;20196;-68
2023/06/12 07:13:37;;;;;;;0.70;0.70;;;;;;;30.68;57.64;98888.94;5071897;28;20216;-69
2023/06/12 07:16:05;;;;;;;0.40;0.40;;;;;;;30.76;58.19;98886.16;5069226;28;20200;-69
2023/06/12 07:18:32;;;;;;;0.35;0.35;;;;;;;30.42;57.52;98878.03;5069333;28;20207;-69
2023/06/12 07:20:59;;;;;;;0.60;0.60;;;;;;;30.15;57.11;98871.56;5068642;28;20208;-69
2023/06/12 07:23:25;;;;;;;0.50;0.50;;;;;;;29.90;57.54;98868.38;5068514;28;20204;-69
2023/06/12 07:25:52;;;;;;;0.57;0.57;;;;;;;29.54;59.55;98867.38;5068552;28;20209;-69
2023/06/12 07:28:19;;;;;;;0.50;0.50;;;;;;;29.25;59.41;98870.78;5070336;28;20576;-69
2023/06/12 07:30:46;;;;;;;6.13;0.40;;;;;;;29.43;59.30;98870.47;5069866;28;20204;-69
2023/06/12 07:33:15;;;;;;;0.40;0.40;;;;;;;29.41;61.70;98867.19;5070616;28;20224;-69
2023/06/12 07:35:42;;;;;;;0.70;0.70;;;;;;;29.53;59.38;98865.78;5070130;28;20232;-69
2023/06/12 07:38:08;;;;;;;0.50;0.50;;;;;;;29.38;59.17;98867.53;5068503;28;20258;-69
2023/06/12 07:40:35;;;;;;;0.40;0.40;;;;;;;29.48;60.34;98874.22;5070934;28;20238;-69
2023/06/12 07:43:02;;;;;;;0.30;0.30;;;;;;;29.85;59.73;98870.75;5068950;28;20207;-69
2023/06/12 07:45:29;;;;;;;0.47;0.47;;;;;;;30.15;60.27;98871.56;5070615;28;20265;-69
2023/06/12 07:47:57;;;;;;;0.30;0.30;;;;;;;30.21;58.17;98871.63;5068706;28;20295;-69
2023/06/12 07:50:25;;;;;;;0.43;0.43;;;;;;;30.28;55.69;98881.47;5069986;28;20641;-69
2023/06/12 07:52:52;;;;;;;0.40;0.40;;;;;;;29.63;54.61;98871.59;5069920;28;20239;-69
2023/06/12 07:55:20;;;;;;;0.50;0.50;;;;;;;29.06;57.65;98864.16;5067717;28;20689;-68
2023/06/12 07:57:47;;;;;;;0.30;0.30;;;;;;;29.25;59.90;98867.31;5067586;28;20262;-69
2023/06/12 08:00:15;;;;;;;0.60;0.60;;;;;;;29.32;58.00;98873.53;5068970;28;20196;-69
2023/06/12 08:02:42;;;;;;;0.30;0.30;;;;;;;29.06;57.06;98864.16;5070993;28;20212;-68
2023/06/12 08:05:10;;;;;;;0.32;0.32;;;;;;;29.12;59.27;98860.78;5070517;28;20203;-71
2023/06/12 08:07:38;;;;;;;0.60;0.60;;;;;;;29.10;56.37;98869.91;5069697;28;20208;-69
2023/06/12 08:10:07;;;;;;;0.40;0.40;;;;;;;29.08;58.88;98851.56;5067904;28;20203;-68
2023/06/12 08:12:34;;;;;;;0.40;0.40;;;;;;;29.38;56.61;98868.38;5068378;28;20207;-68
2023/06/12 08:15:02;;;;;;;0.40;0.40;;;;;;;29.24;53.00;98866.50;5070237;28;20220;-69
2023/06/12 08:17:29;;;;;;;0.30;0.30;;;;;;;29.00;54.32;98861.38;5067353;28;20307;-69
2023/06/12 08:19:56;;;;;;;0.40;0.40;;;;;;;29.02;57.42;98859.38;5068275;28;20277;-68
2023/06/12 08:22:23;;;;;;;0.40;0.40;;;;;;;28.88;55.70;98858.34;5067359;28;20204;-69
2023/06/12 08:24:51;;;;;;;0.40;0.40;;;;;;;28.71;57.52;98853.34;5069389;28;20669;-68
2023/06/12 08:27:18;;;;;;;0.35;0.35;;;;;;;28.46;55.79;98860.56;5068399;28;20235;-68
2023/06/12 08:29:45;;;;;;;0.37;0.37;;;;;;;28.25;57.92;98855.84;5069522;28;20672;-68
2023/06/12 08:32:12;;;;;;;0.47;0.47;;;;;;;28.45;59.99;98848.34;5068426;28;20209;-68
2023/06/12 08:34:39;;;;;;;0.33;0.33;;;;;;;28.54;57.72;98852.56;5067738;28;20220;-69
2023/06/12 08:37:06;;;;;;;0.33;0.33;;;;;;;28.32;57.73;98850.72;5070101;28;20203;-69
2023/06/12 08:39:33;;;;;;;0.30;0.30;;;;;;;28.47;58.61;98851.63;5068764;28;20236;-69
2023/06/12 08:42:04;;;;;;;0.40;0.40;;;;;;;28.66;58.10;98845.94;5066813;28;20273;-68
2023/06/12 08:44:31;;;;;;;0.60;0.60;;;;;;;28.51;59.38;98835.28;5069272;28;20196;-72
2023/06/12 08:47:01;;;;;;;0.57;0.57;;;;;;;28.72;58.55;98837.34;5059819;28;20207;-65
2023/06/12 08:49:28;;;;;;;0.27;0.27;;;;;;;28.88;58.03;98839.06;5058702;28;20199;-67
2023/06/12 08:51:55;;;;;;;1.03;1.00;;;;;;;28.73;57.18;98836.34;5065267;28;20203;-64
2023/06/12 08:54:23;;;;;;;0.50;0.50;;;;;;;28.84;56.43;98829.84;5069096;28;20211;-64
2023/06/12 08:56:52;;;;;;;0.53;0.50;;;;;;;28.94;58.82;98828.63;5069978;28;20196;-67
2023/06/12 08:59:20;;;;;;;0.30;0.30;;;;;;;29.31;57.33;98832.28;5068312;28;20195;-64
2023/06/12 09:01:52;;;;;;;0.68;0.45;;;;;;;29.35;55.57;98836.22;5066372;28;20308;-64
2023/06/12 09:04:28;;;;;;;0.30;0.30;;;;;;;29.13;55.86;98833.41;5067715;28;20578;-65
2023/06/12 09:07:01;;;;;;;0.40;0.40;;;;;;;29.16;55.52;98840.97;5067644;28;20232;-64
2023/06/12 09:09:37;;;;;;;0.57;0.57;;;;;;;29.11;55.19;98816.91;5068739;28;20210;-69
2023/06/12 09:12:06;;;;;;;0.40;0.40;;;;;;;29.16;58.20;98816.38;5068504;28;20215;-69
2023/06/12 09:14:35;;;;;;;0.30;0.30;;;;;;;29.14;56.91;98824.47;5068383;28;20246;-69
2023/06/12 09:17:03;;;;;;;0.40;0.40;;;;;;;29.01;57.42;98824.28;5067444;28;20203;-69
2023/06/12 09:19:36;;;;;;;0.50;0.50;;;;;;;28.93;58.96;98834.88;5068082;28;20196;-69
2023/06/12 09:22:04;;;;;;;0.27;0.27;;;;;;;28.93;58.26;98826.97;5068943;28;20294;-69
2023/06/12 09:24:30;;;;;;;0.30;0.30;;;;;;;29.19;57.82;98814.22;5069306;28;20200;-69
2023/06/12 09:26:57;;;;;;;0.40;0.40;;;;;;;29.34;57.67;98821.38;5069614;28;20196;-69
2023/06/12 09:29:27;;;;;;;0.30;0.30;;;;;;;29.07;56.49;98822.75;5068535;28;20618;-69
2023/06/12 09:31:55;;;;;;;0.57;0.57;;;;;;;29.15;56.87;98812.91;5069543;28;20291;-69
2023/06/12 09:34:25;;;;;;;0.68;0.68;;;;;;;29.14;58.83;98816.56;5064673;28;20220;-69
2023/06/12 09:36:52;;;;;;;0.90;0.90;;;;;;;28.99;58.19;98807.78;5067113;28;20319;-68
2023/06/12 09:39:26;;;;;;;0.50;0.50;;;;;;;29.05;58.65;98803.59;5068155;28;20214;-69
2023/06/12 09:41:53;;;;;;;0.40;0.40;;;;;;;28.90;58.88;98805.38;5068654;28;20207;-69
2023/06/12 09:44:21;;;;;;;0.40;0.40;;;;;;;28.83;58.45;98796.53;5070686;28;20200;-69
2023/06/12 09:46:48;;;;;;;0.52;0.52;;;;;;;29.10;57.63;98795.97;5073678;28;20741;-69
2023/06/12 09:49:19;;;;;;;0.43;0.43;;;;;;;29.28;57.55;98795.69;5072588;28;20206;-69
2023/06/12 09:51:49;;;;;;;0.40;0.40;;;;;;;29.28;56.73;98796.50;5069775;28;20196;-69
2023/06/12 09:54:17;;;;;;;0.40;0.40;;;;;;;29.07;56.99;98776.06;5070865;28;20270;-69
2023/06/12 09:56:46;;;;;;;0.37;0.37;;;;;;;29.07;58.10;98776.06;5072222;28;20349;-69
2023/06/12 09:59:18;;;;;;;0.53;0.53;;;;;;;29.40;57.44;98787.16;5073180;28;20212;-69
2023/06/12 10:01:48;;;;;;;0.40;0.40;;;;;;;29.45;56.79;98784.78;5071833;28;20302;-69
2023/06/12 10:04:23;;;;;;;0.47;0.47;;;;;;;29.49;56.56;98786.06;5072162;28;20192;-69
2023/06/12 10:06:52;;;;;;;0.30;0.30;;;;;;;29.32;55.26;98783.75;5072159;28;20210;-69
2023/06/12 10:09:20;;;;;;;0.57;0.57;;;;;;;29.39;58.24;98774.13;5070914;28;20203;-69
2023/06/12 10:11:49;;;;;;;0.40;0.40;;;;;;;29.22;57.17;98759.41;5065985;28;20286;-70
2023/06/12 10:14:18;;;;;;;0.30;0.30;;;;;;;29.45;58.98;98773.41;5065180;28;20704;-67
2023/06/12 10:16:47;;;;;;;0.40;0.40;;;;;;;29.55;57.47;98772.13;5063443;28;20196;-67
2023/06/12 10:19:16;;;;;;;0.55;0.55;;;;;;;29.71;58.46;98773.78;5060819;28;20204;-67
2023/06/12 10:21:45;;;;;;;0.50;0.50;;;;;;;29.85;58.55;98775.63;5068944;28;20235;-67
2023/06/12 10:24:12;;;;;;;0.73;0.73;;;;;;;29.72;57.06;98772.78;5071067;28;20296;-67
2023/06/12 10:26:40;;;;;;;0.57;0.57;;;;;;;29.91;57.37;98779.34;5073418;28;20196;-67
2023/06/12 10:29:28;;;;;;;0.43;0.43;;;;;;;29.97;56.33;98789.19;5070020;28;20231;-68
2023/06/12 10:31:55;;;;;;;0.70;0.70;;;;;;;29.47;57.11;98781.94;5066499;28;20204;-68
2023/06/12 10:34:23;;;;;;;0.28;0.28;;;;;;;28.84;59.29;98751.50;5071698;28;20301;-68
2023/06/12 10:36:50;;;;;;;0.52;0.52;;;;;;;29.01;60.95;98766.22;5073615;28;20668;-68
2023/06/12 10:39:19;;;;;;;0.68;0.68;;;;;;;29.22;57.68;98767.31;5073082;28;20204;-66
2023/06/12 10:41:54;;;;;;;0.70;0.70;;;;;;;28.97;58.08;98756.19;5072137;28;20207;-68
2023/06/12 10:44:37;;;;;;;0.30;0.30;;;;;;;28.91;58.13;98760.34;5073165;28;20684;-69
2023/06/12 10:47:05;;;;;;;0.40;0.40;;;;;;;28.71;57.98;98764.47;5071091;28;20199;-67
2023/06/12 10:49:56;;;;;;;0.60;0.60;;;;;;;28.57;59.21;98767.84;5072739;28;20258;-68
2023/06/12 10:52:23;;;;;;;0.50;0.50;;;;;;;28.59;59.91;98752.66;5071544;28;20298;-68
2023/06/12 10:55:20;;;;;;;0.50;0.50;;;;;;;28.42;61.83;98753.78;5071896;28;20223;-67
2023/06/12 10:57:54;;;;;;;0.63;0.63;;;;;;;28.37;61.41;98743.75;5067478;28;20231;-69
2023/06/12 11:00:22;;;;;;;0.30;0.30;;;;;;;28.45;63.19;98745.50;5069637;28;20196;-68
2023/06/12 11:02:58;;;;;;;0.60;0.60;;;;;;;28.53;60.91;98734.91;5070904;28;20204;-69
2023/06/12 11:05:27;;;;;;;0.40;0.40;;;;;;;28.41;62.40;98744.22;5071694;28;20718;-65
2023/06/12 11:07:56;;;;;;;0.43;0.43;;;;;;;28.44;63.48;98741.22;5071594;28;20243;-66
2023/06/12 11:10:23;;;;;;;0.50;0.50;;;;;;;28.73;62.67;98740.53;5071608;28;20208;-66
2023/06/12 11:12:51;;;;;;;0.80;0.80;;;;;;;28.81;61.57;98738.69;5070595;28;20229;-66
2023/06/12 11:15:18;;;;;;;0.63;0.60;;;;;;;28.71;59.85;98735.47;5071853;28;20216;-67
2023/06/12 11:17:45;;;;;;;0.40;0.40;;;;;;;28.79;59.01;98735.38;5071392;28;20306;-67
2023/06/12 11:20:13;;;;;;;0.60;0.60;;;;;;;28.85;59.55;98734.69;5071269;28;20208;-66
2023/06/12 11:22:41;;;;;;;0.40;0.40;;;;;;;28.77;60.07;98731.28;5071922;28;20199;-66
2023/06/12 11:25:09;;;;;;;0.30;0.30;;;;;;;28.66;59.33;98730.69;5071803;28;20298;-65
2023/06/12 11:27:36;;;;;;;0.40;0.40;;;;;;;28.60;59.74;98725.28;5068766;28;20227;-66
2023/06/12 11:30:11;;;;;;;0.53;0.53;;;;;;;28.39;59.36;98722.47;5069617;28;20662;-65
2023/06/12 11:32:38;;;;;;;0.50;0.50;;;;;;;28.35;61.09;98723.81;5066582;28;20203;-66
2023/06/12 11:35:06;;;;;;;0.80;0.67;;;;;;;28.31;59.86;98714.63;5070940;28;20224;-65